Time;durP1;ratioP1;P1;durP2;ratioP2;P2;SDS_P1;SDS_P2;PMS_P1;PMS_P2;Temp;Humidity;BMP_temperature;BMP_pressure;BME280_temperature;BME280_humidity;BME280_pressure;Samples;Min_cycle;Max_cycle;Signal;HPM_P1;HPM_P2
2024/01/09 00:00:17;;;;;;;14.98;11.43;;;-0.60;99.90;;;-0.69;73.19;103224.91;5032206;28;20042;-80
2024/01/09 00:02:45;;;;;;;14.57;11.40;;;-0.60;99.90;;;-0.83;73.46;103209.97;5031506;28;20046;-77
2024/01/09 00:05:14;;;;;;;15.63;12.20;;;-0.70;99.90;;;-0.99;73.67;103211.31;5013634;28;20059;-81
2024/01/09 00:07:43;;;;;;;11.67;10.47;;;-0.90;99.90;;;-1.61;73.60;103060.13;5031217;28;20072;-79
2024/01/09 00:10:13;;;;;;;12.73;11.00;;;-0.70;99.90;;;-0.66;73.33;103212.19;5030791;28;20052;-76
2024/01/09 00:12:41;;;;;;;15.27;11.55;;;-0.60;99.90;;;-0.65;72.94;103209.69;5030997;28;20080;-76
2024/01/09 00:15:10;;;;;;;12.13;10.80;;;-0.60;99.90;;;-0.70;72.64;103186.75;5030642;28;20506;-81
2024/01/09 00:17:39;;;;;;;12.73;10.70;;;-0.60;99.90;;;-0.74;72.80;103206.41;5031147;28;20072;-80
2024/01/09 00:20:09;;;;;;;13.97;11.17;;;-0.60;99.90;;;-0.63;72.53;103208.13;5030978;28;20049;-79
2024/01/09 00:22:37;;;;;;;12.77;10.52;;;-0.60;99.90;;;-0.57;72.37;103218.09;5030732;28;20044;-79
2024/01/09 00:25:08;;;;;;;12.27;10.53;;;-0.50;99.90;;;-0.67;72.28;103199.97;5030954;28;20052;-80
2024/01/09 00:27:38;;;;;;;14.37;12.00;;;-0.60;99.90;;;-0.63;72.32;103187.34;5030508;28;20254;-80
2024/01/09 00:30:08;;;;;;;13.68;11.10;;;-0.60;99.90;;;-0.70;71.83;103190.25;5030853;28;20068;-80
2024/01/09 00:32:37;;;;;;;15.03;11.17;;;-0.50;99.90;;;-0.72;72.09;103186.63;5030511;28;20046;-79
2024/01/09 00:35:07;;;;;;;20.07;11.47;;;-0.60;99.90;;;-0.93;71.72;103195.34;5030439;28;20037;-79
2024/01/09 00:37:35;;;;;;;18.08;11.30;;;-0.70;99.90;;;-0.73;72.24;103184.81;5030846;28;20045;-77
2024/01/09 00:40:05;;;;;;;12.50;11.07;;;-0.70;99.90;;;-0.66;71.66;103194.00;5030594;28;20045;-79
2024/01/09 00:42:33;;;;;;;13.07;10.27;;;-0.60;99.90;;;-0.61;71.49;103192.66;5030228;28;20052;-79
2024/01/09 00:45:05;;;;;;;13.60;11.97;;;-0.60;99.90;;;-0.72;71.40;103186.63;5030166;28;20054;-80
2024/01/09 00:47:34;;;;;;;12.47;10.97;;;-0.60;99.90;;;-0.63;71.65;103184.75;5031502;28;20057;-78
2024/01/09 00:50:02;;;;;;;15.40;10.93;;;-0.60;99.90;;;-0.75;71.83;103194.19;5033901;28;20053;-80
2024/01/09 00:52:31;;;;;;;12.70;10.83;;;-0.70;99.90;;;-0.60;71.66;103191.88;5033994;28;20045;-80
2024/01/09 00:54:59;;;;;;;14.13;11.70;;;-0.60;99.90;;;-0.59;71.65;103196.28;5033619;28;20046;-81
2024/01/09 00:57:28;;;;;;;12.13;10.30;;;-0.60;99.90;;;-0.70;71.30;103184.16;5033647;28;20045;-77
2024/01/09 00:59:56;;;;;;;13.67;10.50;;;-0.60;99.90;;;-0.98;71.48;103191.47;5033442;28;20056;-81
2024/01/09 01:02:26;;;;;;;13.80;11.47;;;-0.80;99.90;;;-0.97;72.24;103196.78;5033769;28;20099;-77
2024/01/09 01:04:54;;;;;;;16.20;12.18;;;-0.90;99.90;;;-1.07;72.38;103191.66;5033499;28;20052;-75
2024/01/09 01:07:23;;;;;;;14.93;11.33;;;-0.90;99.90;;;-0.97;72.56;103191.59;5033609;28;20041;-81
2024/01/09 01:09:52;;;;;;;14.83;10.77;;;-0.90;99.90;;;-1.12;72.74;103203.34;5015675;28;20049;-76
2024/01/09 01:12:20;;;;;;;12.50;10.93;;;-1.00;99.90;;;-1.19;73.31;103206.25;5033621;28;20402;-79
2024/01/09 01:14:48;;;;;;;12.77;11.37;;;-1.10;99.90;;;-1.10;73.20;103190.50;5033391;28;20056;-79
2024/01/09 01:17:17;;;;;;;13.97;11.53;;;-1.00;99.90;;;-1.14;73.11;103191.94;5033136;28;20033;-80
2024/01/09 01:19:47;;;;;;;12.77;11.37;;;-1.00;99.90;;;-1.00;73.10;103180.97;5033095;28;20049;-80
2024/01/09 01:22:15;;;;;;;12.82;11.52;;;-0.90;99.90;;;-1.19;73.34;103211.44;5033335;28;20038;-80
2024/01/09 01:24:44;;;;;;;14.93;11.53;;;-1.00;99.90;;;-0.99;73.46;103193.16;5033239;28;20121;-81
2024/01/09 01:27:12;;;;;;;13.63;11.30;;;-0.90;99.90;;;-0.99;73.47;103206.13;5015420;28;20054;-81
2024/01/09 01:29:40;;;;;;;14.10;11.40;;;-0.90;99.90;;;-0.94;73.25;103196.13;5032922;28;20052;-79
2024/01/09 01:32:10;;;;;;;14.33;11.17;;;-0.90;99.90;;;-0.92;73.17;103197.16;5033253;28;20042;-79
2024/01/09 01:34:38;;;;;;;12.68;11.25;;;-0.90;99.90;;;-0.76;73.14;103214.84;5033402;28;20092;-77
2024/01/09 01:37:08;;;;;;;15.23;11.07;;;-0.70;99.90;;;-0.80;72.83;103203.31;5032778;28;20406;-79
2024/01/09 01:39:37;;;;;;;12.70;11.20;;;-0.70;99.90;;;-0.81;73.04;103203.19;5033076;28;20108;-79
2024/01/09 01:42:06;;;;;;;13.27;10.63;;;-0.70;99.90;;;-0.87;72.66;103197.53;5033031;28;20052;-78
2024/01/09 01:44:34;;;;;;;13.60;11.27;;;-0.70;99.90;;;-1.00;73.02;103204.34;5015223;28;20045;-79
2024/01/09 01:47:03;;;;;;;12.77;11.47;;;-0.80;99.90;;;-0.94;73.45;103214.31;5032671;28;20495;-77
2024/01/09 01:49:31;;;;;;;15.13;12.63;;;-0.90;99.90;;;-1.15;73.22;103176.25;5032589;28;20386;-79
2024/01/09 01:52:00;;;;;;;15.87;11.97;;;-0.90;99.90;;;-1.05;73.39;103203.09;5032570;28;20573;-79
2024/01/09 01:57:19;;;;;;;13.33;11.90;;;-0.90;99.90;;;-1.22;74.01;103203.41;5080236;23;20100;-77
2024/01/09 01:59:48;;;;;;;13.80;11.85;;;-1.00;99.90;;;-1.18;74.04;103208.06;5012025;28;20104;-78
2024/01/09 02:02:16;;;;;;;12.93;11.63;;;-1.10;99.90;;;-1.23;73.87;103167.84;5012421;28;20569;-79
2024/01/09 02:04:45;;;;;;;12.93;11.40;;;-1.00;99.90;;;-1.13;73.91;103211.94;5012687;28;20046;-78
2024/01/09 02:07:14;;;;;;;16.27;11.57;;;-1.00;99.90;;;-1.36;73.87;103196.22;5012376;28;20060;-76
2024/01/09 02:09:42;;;;;;;14.23;11.50;;;-1.20;99.90;;;-1.29;73.96;103197.59;4994861;28;20041;-78
2024/01/09 02:12:11;;;;;;;14.97;11.30;;;-1.20;99.90;;;-1.31;73.80;103201.75;5012965;28;20076;-80
2024/01/09 02:14:41;;;;;;;12.83;11.47;;;-1.20;99.90;;;-1.42;74.07;103213.88;5012575;28;20049;-76
2024/01/09 02:17:09;;;;;;;13.43;10.43;;;-1.30;99.90;;;-1.54;74.39;103209.38;5012165;28;20053;-77
2024/01/09 02:19:38;;;;;;;15.40;11.30;;;-1.40;99.90;;;-1.59;74.58;103198.66;4994733;28;20545;-78
2024/01/09 02:22:06;;;;;;;14.47;10.53;;;-1.40;99.90;;;-1.39;74.64;103208.94;4995025;28;20458;-78
2024/01/09 02:24:35;;;;;;;13.07;11.17;;;-1.30;99.90;;;-1.40;74.05;103199.34;4994926;28;20061;-77
2024/01/09 02:27:14;;;;;;;12.47;11.17;;;-1.30;99.90;;;-1.37;74.38;103186.59;4994740;28;20057;-79
2024/01/09 02:29:50;;;;;;;12.15;10.95;;;-1.30;99.90;;;-1.30;73.91;103201.91;5012560;28;20406;-80
2024/01/09 02:32:20;;;;;;;13.07;11.13;;;-1.20;99.90;;;-1.53;73.64;103160.19;4994303;28;20120;-79
2024/01/09 02:34:50;;;;;;;12.63;10.80;;;-1.20;99.90;;;-1.44;73.94;103186.00;5011941;28;20077;-77
2024/01/09 02:37:18;;;;;;;13.83;10.23;;;-1.30;99.90;;;-1.39;73.57;103193.34;5012005;28;20553;-80
2024/01/09 02:39:47;;;;;;;13.87;11.40;;;-1.30;99.90;;;-1.35;73.43;103179.84;4994436;28;20045;-79
2024/01/09 02:42:15;;;;;;;13.83;11.13;;;-1.30;99.90;;;-1.34;73.67;103173.91;5011731;28;20046;-78
2024/01/09 02:44:44;;;;;;;13.07;11.20;;;-1.30;99.90;;;-2.19;73.35;103036.38;5011728;28;20634;-79
2024/01/09 02:47:14;;;;;;;13.20;11.57;;;-1.30;99.90;;;-1.27;73.09;103171.00;5011982;28;20042;-80
2024/01/09 02:49:42;;;;;;;15.20;10.77;;;-1.20;99.90;;;-1.20;72.88;103177.59;5011650;28;20452;-79
2024/01/09 02:52:11;;;;;;;15.20;9.97;;;-1.10;99.90;;;-1.30;72.69;103175.97;5011893;28;20049;-80
2024/01/09 02:54:39;;;;;;;12.60;9.67;;;-1.10;99.90;;;-1.97;72.47;103013.09;5011799;28;20111;-80
2024/01/09 02:57:08;;;;;;;13.07;10.57;;;-1.00;99.90;;;-1.22;72.67;103176.56;5011824;28;20054;-78
2024/01/09 02:59:36;;;;;;;16.87;12.50;;;-1.10;99.90;;;-1.10;72.71;103174.91;5011704;28;20454;-78
2024/01/09 03:02:05;;;;;;;12.30;9.83;;;-1.00;99.90;;;-1.13;72.81;103177.28;5011557;28;20085;-80
2024/01/09 03:04:35;;;;;;;14.47;10.63;;;-1.10;99.90;;;-1.16;72.64;103161.47;5011413;28;20050;-79
2024/01/09 03:07:04;;;;;;;12.85;9.98;;;-1.00;99.90;;;-1.07;72.87;103178.69;5011414;28;20048;-80
2024/01/09 03:09:33;;;;;;;13.27;10.33;;;-1.00;99.90;;;-1.30;73.12;103175.03;5011166;28;20440;-79
2024/01/09 03:12:03;;;;;;;12.97;10.03;;;-1.20;99.90;;;-1.35;73.00;103152.97;5011566;28;20141;-77
2024/01/09 03:14:31;;;;;;;12.05;10.20;;;-1.20;99.90;;;-1.36;73.11;103167.69;5011260;28;20052;-77
2024/01/09 03:17:00;;;;;;;11.73;10.10;;;-1.20;99.90;;;-1.38;73.15;103166.66;5011106;28;20042;-79
2024/01/09 03:19:28;;;;;;;12.87;11.43;;;-1.30;99.90;;;-1.45;73.73;103181.59;4993799;28;20438;-80
2024/01/09 03:21:58;;;;;;;11.90;10.13;;;-1.40;99.90;;;-1.53;73.65;103160.19;5011167;28;20042;-79
2024/01/09 03:24:26;;;;;;;13.80;11.05;;;-1.30;99.90;;;-1.41;73.66;103148.22;5011255;28;20049;-80
2024/01/09 03:26:55;;;;;;;13.57;12.17;;;-1.20;99.90;;;-1.45;73.53;103146.16;5011334;28;20407;-79
2024/01/09 03:29:23;;;;;;;11.77;10.57;;;-1.20;99.90;;;-1.34;73.70;103165.19;5011296;28;20069;-79
2024/01/09 03:31:52;;;;;;;12.53;11.07;;;-1.20;99.90;;;-1.50;73.79;103146.56;5011004;28;20045;-79
2024/01/09 03:34:20;;;;;;;13.40;10.77;;;-1.30;99.90;;;-1.48;74.03;103164.09;5010914;28;20495;-80
2024/01/09 03:36:49;;;;;;;13.43;11.33;;;-1.40;99.90;;;-1.59;74.81;103167.53;5011136;28;20053;-80
2024/01/09 03:39:18;;;;;;;13.67;10.97;;;-1.50;99.90;;;-1.68;74.72;103147.72;5010971;28;20113;-80
2024/01/09 03:41:47;;;;;;;13.25;11.65;;;-1.50;99.90;;;-1.58;75.05;103158.94;5011101;28;20410;-80
2024/01/09 03:44:16;;;;;;;12.67;11.23;;;-1.50;99.90;;;-1.71;74.92;103157.81;5010889;28;20494;-80
2024/01/09 03:46:44;;;;;;;13.07;11.07;;;-1.60;99.90;;;-1.70;75.35;103165.72;5011486;28;20698;-76
2024/01/09 03:49:12;;;;;;;14.53;10.77;;;-1.60;99.90;;;-1.82;75.36;103152.66;5011145;28;20045;-80
2024/01/09 03:51:41;;;;;;;14.63;11.07;;;-1.60;99.90;;;-2.00;75.41;103119.16;4994046;28;20034;-81
2024/01/09 03:54:09;;;;;;;15.57;10.90;;;-1.70;99.90;;;-1.69;75.68;103151.06;5010920;28;20097;-79
2024/01/09 03:56:39;;;;;;;12.87;11.30;;;-1.60;99.90;;;-1.77;75.43;103155.63;5010469;28;20181;-80
2024/01/09 03:59:08;;;;;;;13.40;10.98;;;-1.60;99.90;;;-1.56;75.51;103143.47;5011056;28;20049;-80
2024/01/09 04:01:39;;;;;;;13.27;11.77;;;-1.50;99.90;;;-1.62;75.47;103143.91;5010947;28;20045;-82
2024/01/09 04:04:08;;;;;;;13.40;11.53;;;-1.50;99.90;;;-1.51;75.07;103145.66;5011042;28;20046;-81
2024/01/09 04:06:43;;;;;;;13.53;11.37;;;-1.40;99.90;;;-1.61;74.73;103140.53;5011257;28;20487;-82
2024/01/09 04:09:12;;;;;;;13.50;11.53;;;-1.40;99.90;;;-1.55;75.15;103141.03;5010688;28;20410;-80
2024/01/09 04:11:46;;;;;;;14.50;10.93;;;-1.40;99.90;;;-1.73;75.00;103142.13;5010799;28;20079;-78
2024/01/09 04:14:15;;;;;;;14.07;10.97;;;-1.50;99.90;;;-1.82;75.51;103125.84;5010929;28;20038;-77
2024/01/09 04:16:47;;;;;;;13.43;11.60;;;-1.60;99.90;;;-1.81;75.79;103135.41;5010510;28;20034;-81
2024/01/09 04:19:16;;;;;;;13.60;10.43;;;-1.70;99.90;;;-1.70;76.05;103151.88;5011330;28;20058;-81
2024/01/09 04:21:44;;;;;;;12.57;10.60;;;-1.60;99.90;;;-1.62;75.80;103146.50;5010792;28;20042;-82
2024/01/09 04:24:13;;;;;;;14.23;11.80;;;-1.60;99.90;;;-1.59;75.92;103132.88;5014589;28;20056;-80
2024/01/09 04:26:41;;;;;;;13.53;12.10;;;-1.50;99.90;;;-1.61;75.82;103150.91;5014298;28;20093;-83
2024/01/09 04:29:11;;;;;;;14.23;10.90;;;-1.50;99.90;;;-1.68;75.72;103137.34;5014407;28;20046;-81
2024/01/09 04:31:39;;;;;;;16.15;11.85;;;-1.50;99.90;;;-1.82;76.22;103138.81;5014528;28;20034;-80
2024/01/09 04:34:08;;;;;;;19.47;10.90;;;-1.60;99.90;;;-1.84;76.62;103142.97;5014669;28;20092;-79
2024/01/09 04:36:37;;;;;;;13.67;11.43;;;-1.80;99.90;;;-1.88;76.85;103141.78;5014150;28;20053;-82
2024/01/09 04:39:05;;;;;;;13.80;11.60;;;-1.70;99.90;;;-1.84;76.73;103137.78;5014575;28;20093;-81
2024/01/09 04:41:34;;;;;;;18.00;12.30;;;-1.70;99.90;;;-1.95;76.71;103151.53;4996762;28;20054;-80
2024/01/09 04:44:02;;;;;;;13.67;11.40;;;-1.80;99.90;;;-2.02;77.17;103149.22;5013986;28;20049;-79
2024/01/09 04:46:32;;;;;;;15.13;11.73;;;-1.90;99.90;;;-2.09;77.18;103152.09;5013982;28;20052;-84
2024/01/09 04:49:03;;;;;;;14.38;11.55;;;-1.90;99.90;;;-1.80;77.02;103145.00;5013885;28;20045;-81
2024/01/09 04:51:32;;;;;;;14.20;12.17;;;-1.70;99.90;;;-1.88;76.48;103112.38;5013900;28;20038;-82
2024/01/09 04:54:00;;;;;;;12.93;11.17;;;-1.70;99.90;;;-1.83;76.57;103152.53;5014007;28;20038;-81
2024/01/09 04:56:29;;;;;;;14.53;12.10;;;-1.70;99.90;;;-1.91;76.88;103149.31;5013937;28;20064;-83
2024/01/09 04:58:57;;;;;;;13.97;11.30;;;-1.70;99.90;;;-1.76;76.92;103144.47;5013922;28;20038;-81
2024/01/09 05:01:26;;;;;;;15.13;12.17;;;-1.70;99.90;;;-1.67;76.72;103149.50;5013670;28;20037;-83
2024/01/09 05:03:56;;;;;;;14.00;11.33;;;-1.60;99.90;;;-1.93;77.03;103109.41;5013822;28;20070;-82
2024/01/09 05:06:24;;;;;;;15.63;11.23;;;-1.70;99.90;;;-1.80;76.71;103146.72;5013532;28;20042;-82
2024/01/09 05:08:53;;;;;;;15.70;12.60;;;-1.70;99.90;;;-1.76;76.49;103141.88;5013532;28;20143;-82
2024/01/09 05:11:21;;;;;;;15.20;11.63;;;-1.70;99.90;;;-2.58;76.50;102980.44;5013642;28;20108;-80
2024/01/09 05:13:50;;;;;;;13.93;11.53;;;-1.60;99.90;;;-1.85;76.42;103138.53;5013534;28;20042;-84
2024/01/09 05:16:18;;;;;;;15.03;12.10;;;-1.70;99.90;;;-1.70;76.63;103137.19;5013644;28;20046;-83
2024/01/09 05:18:46;;;;;;;14.43;11.93;;;-1.60;99.90;;;-1.65;76.33;103143.66;4995950;28;20203;-81
2024/01/09 05:21:17;;;;;;;14.10;11.10;;;-1.60;99.90;;;-1.80;76.20;103155.38;5013292;28;20048;-80
2024/01/09 05:23:45;;;;;;;16.25;12.15;;;-1.60;99.90;;;-2.01;76.49;103151.94;5013249;28;20404;-81
2024/01/09 05:26:14;;;;;;;15.63;12.00;;;-1.80;99.90;;;-2.01;76.69;103146.75;5013162;28;20108;-82
2024/01/09 05:28:44;;;;;;;15.43;11.90;;;-1.90;99.90;;;-2.00;77.03;103151.19;5013122;28;20582;-82
2024/01/09 05:31:12;;;;;;;13.80;12.23;;;-1.90;99.90;;;-2.10;77.43;103151.19;5013221;28;20053;-84
2024/01/09 05:33:40;;;;;;;13.97;11.57;;;-2.00;99.90;;;-2.12;77.05;103141.47;5012885;28;20050;-83
2024/01/09 05:36:09;;;;;;;12.90;11.50;;;-1.90;99.90;;;-2.15;77.46;103113.59;5012993;28;20049;-82
2024/01/09 05:38:39;;;;;;;14.30;12.40;;;-1.90;99.90;;;-1.95;76.70;103149.84;5012870;28;20153;-82
2024/01/09 05:41:07;;;;;;;13.35;11.95;;;-1.80;99.90;;;-2.05;77.11;103139.50;5013868;28;20057;-81
2024/01/09 05:43:36;;;;;;;18.00;12.20;;;-1.90;99.90;;;-2.07;77.36;103145.38;5012961;28;20525;-84
2024/01/09 05:46:05;;;;;;;14.73;11.50;;;-2.00;99.90;;;-1.89;76.99;103141.66;5013102;28;20449;-84
2024/01/09 05:48:33;;;;;;;16.10;12.13;;;-1.90;99.90;;;-1.85;76.64;103148.91;5012840;28;20077;-84
2024/01/09 05:51:01;;;;;;;14.80;12.07;;;-1.80;99.90;;;-1.80;76.67;103154.50;5012737;28;20046;-82
2024/01/09 05:53:30;;;;;;;12.83;11.03;;;-1.70;99.90;;;-1.79;76.30;103149.41;5012733;28;20100;-85
2024/01/09 05:56:00;;;;;;;14.77;11.37;;;-1.70;99.90;;;-1.80;76.28;103162.28;5012790;28;20062;-81
2024/01/09 05:58:28;;;;;;;12.90;11.13;;;-1.70;99.90;;;-2.05;76.28;103128.22;5013147;28;20520;-83
2024/01/09 06:00:57;;;;;;;14.50;11.00;;;-1.80;99.90;;;-2.21;76.35;103141.63;4995266;28;20050;-82
2024/01/09 06:03:26;;;;;;;14.00;11.47;;;-1.90;99.90;;;-2.04;76.42;103155.97;5012508;28;20050;-83
2024/01/09 06:05:54;;;;;;;16.93;12.03;;;-1.90;99.90;;;-1.82;76.58;103164.75;5012689;28;20050;-80
2024/01/09 06:08:23;;;;;;;14.53;11.53;;;-1.80;99.90;;;-1.74;76.26;103157.59;5012458;28;20046;-83
2024/01/09 06:10:51;;;;;;;13.83;10.80;;;-1.70;99.90;;;-1.77;75.80;103157.31;5012650;28;20049;-83
2024/01/09 06:13:21;;;;;;;18.33;11.80;;;-1.60;99.90;;;-1.70;75.80;103163.13;5012255;28;20069;-81
2024/01/09 06:15:49;;;;;;;12.90;11.45;;;-1.60;99.90;;;-1.84;75.72;103164.59;5012302;28;20042;-83
2024/01/09 06:18:18;;;;;;;14.70;11.10;;;-1.70;99.90;;;-1.89;75.57;103167.59;5012119;28;20077;-85
2024/01/09 06:20:47;;;;;;;17.10;11.63;;;-1.70;99.90;;;-1.76;75.57;103173.00;5012288;28;20038;-85
2024/01/09 06:23:15;;;;;;;14.37;12.07;;;-1.70;99.90;;;-1.74;75.29;103166.25;5012181;28;20136;-85
2024/01/09 06:25:44;;;;;;;14.17;11.33;;;-1.60;99.90;;;-1.83;75.28;103175.88;4994737;28;20060;-85
2024/01/09 06:28:12;;;;;;;13.57;10.87;;;-1.70;99.90;;;-1.80;75.28;103176.13;5011989;28;20045;-85
2024/01/09 06:30:42;;;;;;;13.03;11.33;;;-1.70;99.90;;;-2.03;75.88;103173.31;5012188;28;20049;-82
2024/01/09 06:33:10;;;;;;;14.18;11.90;;;-1.90;99.90;;;-2.07;75.69;103176.47;5011905;28;20052;-83
2024/01/09 06:35:39;;;;;;;14.77;11.93;;;-1.90;99.90;;;-2.00;75.57;103176.19;4994563;28;20038;-84
2024/01/09 06:38:09;;;;;;;14.57;11.53;;;-1.90;99.90;;;-2.22;75.31;103181.28;5011913;28;20077;-84
2024/01/09 06:40:37;;;;;;;15.95;12.27;;;-1.90;99.90;;;-2.09;75.82;103183.22;5011847;28;20156;-82
2024/01/09 06:43:07;;;;;;;13.63;11.03;;;-2.00;99.90;;;-2.06;75.24;103184.38;5011944;28;20034;-84
2024/01/09 06:45:36;;;;;;;;;;;-1.90;99.90;;;-1.88;75.34;103177.19;5012031;28;20054;-83
2024/01/09 06:48:07;;;;;;;13.43;11.57;;;-1.80;99.90;;;-2.18;74.77;103143.56;5011678;28;19933;-82
2024/01/09 06:50:35;;;;;;;13.90;11.80;;;-1.80;99.90;;;-2.26;74.90;103199.00;5011728;28;20121;-82
2024/01/09 06:53:05;;;;;;;14.15;11.98;;;-2.00;99.90;;;-2.04;75.09;103190.59;5011837;28;20045;-84
2024/01/09 06:55:34;;;;;;;13.23;11.90;;;-2.00;99.90;;;-2.05;74.57;103191.34;5011730;28;20050;-81
2024/01/09 06:58:04;;;;;;;13.83;11.37;;;-1.90;99.90;;;-2.25;74.64;103169.75;5011425;28;20100;-83
2024/01/09 07:00:33;;;;;;;16.08;12.73;;;-2.00;99.90;;;-2.15;74.65;103178.41;5011499;28;20044;-82
2024/01/09 07:03:02;;;;;;;15.02;11.93;;;-2.00;99.90;;;-1.96;74.49;103191.22;5011925;28;20056;-82
2024/01/09 07:05:32;;;;;;;13.57;12.00;;;-1.90;99.90;;;-1.96;74.13;103186.03;5011427;28;20542;-84
2024/01/09 07:08:01;;;;;;;14.60;11.87;;;-1.90;99.90;;;-1.81;73.91;103182.09;5011339;28;20081;-86
2024/01/09 07:10:29;;;;;;;14.53;12.20;;;-1.70;99.90;;;-1.84;73.53;103197.44;5011516;28;20388;-84
2024/01/09 07:12:58;;;;;;;17.43;12.37;;;-1.80;99.90;;;-2.04;73.50;103198.38;4993794;28;20050;-86
2024/01/09 07:15:27;;;;;;;14.23;11.37;;;-1.90;99.90;;;-2.02;73.32;103207.19;4993774;28;20045;-84
2024/01/09 07:17:55;;;;;;;13.83;12.27;;;-1.90;99.90;;;-2.57;73.20;103076.38;5011544;28;20126;-83
2024/01/09 07:20:24;;;;;;;16.43;12.67;;;-1.80;99.90;;;-1.88;72.91;103203.13;4994601;28;20057;-82
2024/01/09 07:22:54;;;;;;;13.33;11.40;;;-1.80;99.90;;;-2.02;72.89;103190.72;5010955;28;20561;-85
2024/01/09 07:25:36;;;;;;;19.13;12.70;;;-1.90;99.90;;;-1.92;72.75;103203.66;5011710;28;20077;-84
2024/01/09 07:28:06;;;;;;;15.33;13.13;;;-1.80;99.90;;;-1.93;72.44;103201.81;5011167;28;20064;-86
2024/01/09 07:30:35;;;;;;;14.20;12.32;;;-1.80;99.90;;;-2.00;72.62;103215.06;5011230;28;20042;-85
2024/01/09 07:33:04;;;;;;;17.57;12.20;;;-1.90;99.90;;;-2.07;72.45;103192.03;5011127;28;20384;-83
2024/01/09 07:35:37;;;;;;;17.37;13.37;;;-1.80;99.90;;;-2.00;72.41;103204.72;4993357;28;20045;-75
2024/01/09 07:38:08;;;;;;;14.77;11.80;;;-1.90;99.90;;;-1.95;72.25;103224.13;5011439;28;20050;-75
2024/01/09 07:40:36;;;;;;;;;;;-1.90;99.90;;;-2.17;72.45;103228.31;5011332;28;20042;-67
2024/01/09 07:43:05;;;;;;;14.23;12.73;;;-2.00;99.90;;;-2.19;72.32;103225.56;4993527;28;20455;-74
2024/01/09 07:45:33;;;;;;;16.00;11.57;;;-2.00;99.90;;;-2.20;72.21;103236.72;4993629;28;20057;-74
2024/01/09 07:48:03;;;;;;;17.00;12.30;;;-2.10;99.90;;;-2.14;72.36;103239.84;4993577;28;20145;-74
2024/01/09 07:50:32;;;;;;;16.98;12.55;;;-2.00;99.90;;;-2.17;72.03;103236.09;5010876;28;20046;-72
2024/01/09 07:53:01;;;;;;;15.65;12.38;;;-2.00;99.90;;;-2.13;72.12;103252.00;5010675;28;20045;-74
2024/01/09 07:55:34;;;;;;;15.17;11.90;;;-2.00;99.90;;;-2.19;71.72;103254.09;5010554;28;20062;-74
2024/01/09 07:58:04;;;;;;;14.02;12.52;;;-2.00;99.90;;;-2.07;71.87;103262.03;4995854;28;20388;-74
2024/01/09 08:00:37;;;;;;;15.63;12.50;;;-2.00;99.90;;;-1.87;71.80;103259.38;5015111;28;20045;-71
2024/01/09 08:03:09;;;;;;;14.07;11.23;;;-1.80;99.90;;;-1.88;71.37;103276.63;4997691;28;20522;-70
2024/01/09 08:05:39;;;;;;;14.40;11.37;;;-1.70;99.90;;;-1.66;70.57;103249.88;5014878;28;20046;-82
2024/01/09 08:08:08;;;;;;;14.60;12.15;;;-1.60;99.90;;;-1.41;70.19;103259.81;5014714;28;20407;-75
2024/01/09 08:10:38;;;;;;;14.50;12.47;;;-1.40;99.90;;;-1.39;69.68;103252.13;5014560;28;20100;-76
2024/01/09 08:13:06;;;;;;;14.10;11.60;;;-1.30;99.90;;;-1.10;69.18;103258.91;5014751;28;20069;-77
2024/01/09 08:15:35;;;;;;;13.93;11.83;;;-1.10;99.90;;;-0.91;68.25;103264.78;5014377;28;20045;-78
2024/01/09 08:18:04;;;;;;;16.57;11.83;;;-0.90;99.90;;;-0.63;67.45;103269.56;5014580;28;20462;-76
2024/01/09 08:20:32;;;;;;;14.33;11.30;;;-0.60;99.90;;;-0.60;66.67;103272.44;5014670;28;20121;-75
2024/01/09 08:23:01;;;;;;;13.60;11.80;;;-0.60;99.90;;;-0.69;66.27;103228.44;4997024;28;20564;-75
2024/01/09 08:25:29;;;;;;;16.10;11.33;;;-0.40;99.90;;;-0.25;65.51;103265.66;5014235;28;20046;-77
2024/01/09 08:27:59;;;;;;;14.33;11.33;;;-0.20;99.90;;;0.08;64.51;103278.66;4996975;28;20058;-71
2024/01/09 08:30:27;;;;;;;13.30;11.38;;;0.10;99.90;;;-0.02;63.94;103252.75;5014332;28;20371;-78
2024/01/09 08:32:59;;;;;;;16.70;11.37;;;0.20;99.90;;;0.04;63.63;103276.59;5014792;28;20104;-85
2024/01/09 08:35:28;;;;;;;12.27;10.57;;;0.10;99.90;;;0.08;62.83;103273.47;5014477;28;20121;-78
2024/01/09 08:37:56;;;;;;;14.43;11.87;;;0.20;99.90;;;0.37;62.73;103289.56;4996691;28;20057;-84
2024/01/09 08:40:24;;;;;;;15.73;11.30;;;0.30;99.90;;;0.56;62.21;103292.75;5014230;28;20042;-75
2024/01/09 08:42:53;;;;;;;14.57;10.43;;;0.50;99.90;;;0.51;61.40;103275.91;5014038;28;20045;-74
2024/01/09 08:45:24;;;;;;;12.60;10.20;;;0.60;99.90;;;0.70;60.77;103275.56;5014100;28;20487;-75
2024/01/09 08:47:52;;;;;;;13.53;10.67;;;0.80;99.90;;;1.00;60.54;103271.69;5014227;28;20046;-76
2024/01/09 08:50:21;;;;;;;13.23;10.60;;;1.00;99.90;;;1.02;59.38;103267.50;4996450;28;20088;-76
2024/01/09 08:52:51;;;;;;;12.93;10.47;;;1.10;99.90;;;1.19;59.14;103287.84;5013801;28;20046;-73
2024/01/09 08:55:20;;;;;;;13.18;10.77;;;1.20;99.90;;;1.52;58.10;103278.13;5014037;28;20088;-75
2024/01/09 08:57:49;;;;;;;13.07;10.90;;;1.60;99.90;;;1.10;57.12;103263.75;5013665;28;20120;-74
2024/01/09 09:00:19;;;;;;;14.70;10.87;;;1.30;99.90;;;1.06;57.84;103279.94;4995886;28;20057;-74
2024/01/09 09:02:49;;;;;;;12.00;9.77;;;1.10;99.90;;;1.27;57.63;103266.75;4996325;28;20050;-74
2024/01/09 09:05:17;;;;;;;12.35;10.95;;;1.30;99.90;;;1.48;57.46;103275.19;5013763;28;20479;-75
2024/01/09 09:07:46;;;;;;;14.23;10.37;;;1.50;99.90;;;1.60;56.73;103282.19;4995493;28;20657;-75
2024/01/09 09:11:17;;;;;;;14.20;11.00;;;1.70;99.90;;;1.83;56.41;103269.03;5087098;27;20413;-74
2024/01/09 09:13:46;;;;;;;14.02;10.68;;;1.80;99.90;;;1.72;55.37;103287.34;5068541;28;20268;-75
2024/01/09 09:16:15;;;;;;;13.83;12.23;;;1.90;99.90;;;1.55;55.55;103277.41;5067876;28;20555;-76
2024/01/09 09:18:44;;;;;;;11.97;10.53;;;1.70;99.90;;;1.88;55.98;103286.72;5067784;28;20056;-75
2024/01/09 09:21:13;;;;;;;12.98;10.68;;;1.80;99.90;;;1.51;54.48;103278.91;5067881;28;20493;-74
2024/01/09 09:23:42;;;;;;;12.67;11.37;;;1.70;99.90;;;1.19;54.67;103267.91;5066808;28;20432;-73
2024/01/09 09:26:12;;;;;;;12.87;11.27;;;1.50;99.90;;;1.59;55.42;103271.63;5066660;28;20076;-74
2024/01/09 09:28:44;;;;;;;13.20;11.05;;;1.60;99.90;;;2.05;55.27;103284.47;5067602;28;20044;-63
2024/01/09 09:31:30;;;;;;;13.48;11.10;;;1.90;99.90;;;2.16;54.12;103286.09;5066596;28;20094;-62
2024/01/09 09:33:59;;;;;;;12.67;11.37;;;2.10;99.90;;;1.84;53.93;103269.91;5067615;28;20032;-63
2024/01/09 09:36:28;;;;;;;13.10;11.70;;;1.90;99.90;;;1.60;54.15;103276.06;5067577;28;20121;-63
2024/01/09 09:38:56;;;;;;;14.17;11.00;;;1.70;99.90;;;1.62;53.09;103258.81;5067535;28;20049;-62
2024/01/09 09:41:25;;;;;;;12.93;10.80;;;1.80;99.90;;;1.44;53.99;103261.03;5067640;28;20087;-62
2024/01/09 09:43:58;;;;;;;13.83;10.80;;;1.50;99.90;;;1.17;54.48;103279.94;5067255;28;20041;-63
2024/01/09 09:46:28;;;;;;;12.60;11.30;;;1.20;99.90;;;1.04;54.82;103260.69;5067317;28;20410;-62
2024/01/09 09:48:58;;;;;;;12.90;10.97;;;1.10;99.90;;;1.01;54.77;103248.34;5066304;28;20143;-63
2024/01/09 09:51:27;;;;;;;14.00;11.17;;;1.20;99.90;;;1.58;54.74;103280.25;5067164;28;20127;-62
2024/01/09 09:53:56;;;;;;;12.70;11.23;;;1.50;99.90;;;1.65;54.40;103277.28;5067223;28;20401;-63
2024/01/09 09:56:26;;;;;;;13.55;10.93;;;1.60;99.90;;;1.45;54.16;103275.00;5067096;28;20037;-62
2024/01/09 09:58:56;;;;;;;12.00;10.57;;;1.50;99.90;;;1.34;54.54;103273.28;5067422;28;20044;-62
2024/01/09 10:01:27;;;;;;;11.65;10.30;;;1.30;99.90;;;1.48;53.74;103247.41;5067084;28;20049;-62
2024/01/09 10:04:03;;;;;;;12.27;10.97;;;1.60;99.90;;;2.07;53.25;103269.78;5067686;28;20475;-62
2024/01/09 10:06:35;;;;;;;14.30;10.97;;;2.00;99.90;;;2.32;52.16;103275.00;5066943;28;20041;-62
2024/01/09 10:09:06;;;;;;;11.20;10.10;;;2.30;99.90;;;2.40;51.64;103292.09;5066822;28;20397;-63
2024/01/09 10:11:35;;;;;;;12.13;10.50;;;2.40;99.90;;;2.22;51.64;103278.69;5065685;28;20588;-63
2024/01/09 10:14:06;;;;;;;12.67;11.03;;;2.20;99.90;;;1.75;52.56;103280.66;5067286;28;20184;-62